sensor_id;sensor_type;location;lat;lon;timestamp;pressure;altitude;pressure_sealevel;temperature;humidity
62402;BME280;48440;51.224;22.506;2024-01-15T00:00:38;97257.97;;;0.54;78.15
62402;BME280;48440;51.224;22.506;2024-01-15T00:03:05;97249.13;;;0.53;78.09
62402;BME280;48440;51.224;22.506;2024-01-15T00:05:30;97243.50;;;0.50;78.17
62402;BME280;48440;51.224;22.506;2024-01-15T00:07:59;97255.22;;;0.49;78.14
62402;BME280;48440;51.224;22.506;2024-01-15T00:10:24;97246.41;;;0.48;77.97
62402;BME280;48440;51.224;22.506;2024-01-15T00:12:50;97236.78;;;0.47;78.58
62402;BME280;48440;51.224;22.506;2024-01-15T00:15:15;97230.63;;;0.47;78.23
62402;BME280;48440;51.224;22.506;2024-01-15T00:17:41;97234.34;;;0.46;78.43
62402;BME280;48440;51.224;22.506;2024-01-15T00:20:07;97232.72;;;0.45;78.02
62402;BME280;48440;51.224;22.506;2024-01-15T00:22:33;97223.44;;;0.47;78.32
62402;BME280;48440;51.224;22.506;2024-01-15T00:25:01;97226.25;;;0.41;78.56
62402;BME280;48440;51.224;22.506;2024-01-15T00:27:26;97215.91;;;0.44;78.18
62402;BME280;48440;51.224;22.506;2024-01-15T00:29:52;97206.75;;;0.40;78.29
62402;BME280;48440;51.224;22.506;2024-01-15T00:32:19;97208.84;;;0.38;77.67
62402;BME280;48440;51.224;22.506;2024-01-15T00:34:46;97195.75;;;0.37;78.00
62402;BME280;48440;51.224;22.506;2024-01-15T00:37:12;97196.56;;;0.37;78.14
62402;BME280;48440;51.224;22.506;2024-01-15T00:39:37;97197.28;;;0.32;78.59
62402;BME280;48440;51.224;22.506;2024-01-15T00:42:03;97195.09;;;0.29;79.07
62402;BME280;48440;51.224;22.506;2024-01-15T00:44:29;97188.22;;;0.33;78.60
62402;BME280;48440;51.224;22.506;2024-01-15T00:46:55;97190.56;;;0.30;78.73
62402;BME280;48440;51.224;22.506;2024-01-15T00:49:20;97200.41;;;0.29;78.97
62402;BME280;48440;51.224;22.506;2024-01-15T00:51:47;97188.94;;;0.29;78.59
62402;BME280;48440;51.224;22.506;2024-01-15T00:54:13;97187.66;;;0.31;78.69
62402;BME280;48440;51.224;22.506;2024-01-15T00:56:39;97184.41;;;0.29;79.14
62402;BME280;48440;51.224;22.506;2024-01-15T00:59:05;97176.41;;;0.29;79.02
62402;BME280;48440;51.224;22.506;2024-01-15T01:01:31;97175.59;;;0.29;79.60
62402;BME280;48440;51.224;22.506;2024-01-15T01:03:57;97163.00;;;0.24;79.68
62402;BME280;48440;51.224;22.506;2024-01-15T01:06:23;97173.09;;;0.22;80.52
62402;BME280;48440;51.224;22.506;2024-01-15T01:08:48;97166.38;;;0.20;80.26
62402;BME280;48440;51.224;22.506;2024-01-15T01:11:15;97171.72;;;0.20;80.63
62402;BME280;48440;51.224;22.506;2024-01-15T01:13:40;97167.53;;;0.24;80.79
62402;BME280;48440;51.224;22.506;2024-01-15T01:16:06;97166.06;;;0.16;81.34
62402;BME280;48440;51.224;22.506;2024-01-15T01:18:49;97159.66;;;0.17;81.57
62402;BME280;48440;51.224;22.506;2024-01-15T01:21:33;97154.34;;;0.17;81.54
62402;BME280;48440;51.224;22.506;2024-01-15T01:24:25;97158.38;;;0.20;81.16
62402;BME280;48440;51.224;22.506;2024-01-15T01:26:50;97151.91;;;0.16;81.11
62402;BME280;48440;51.224;22.506;2024-01-15T01:29:17;97146.91;;;0.19;81.27
62402;BME280;48440;51.224;22.506;2024-01-15T01:31:46;97144.25;;;0.19;81.27
62402;BME280;48440;51.224;22.506;2024-01-15T01:34:15;97137.03;;;0.20;81.19
62402;BME280;48440;51.224;22.506;2024-01-15T01:36:42;97136.81;;;0.21;80.98
62402;BME280;48440;51.224;22.506;2024-01-15T01:39:32;97133.00;;;0.17;81.01
62402;BME280;48440;51.224;22.506;2024-01-15T01:42:02;97126.38;;;0.20;80.21
62402;BME280;48440;51.224;22.506;2024-01-15T01:44:30;97135.50;;;0.24;80.08
62402;BME280;48440;51.224;22.506;2024-01-15T01:46:59;97126.13;;;0.21;80.08
62402;BME280;48440;51.224;22.506;2024-01-15T01:49:28;97123.69;;;0.20;79.89
62402;BME280;48440;51.224;22.506;2024-01-15T01:51:57;97123.47;;;0.21;79.78
62402;BME280;48440;51.224;22.506;2024-01-15T01:54:24;97125.09;;;0.22;79.86
62402;BME280;48440;51.224;22.506;2024-01-15T01:56:51;97118.13;;;0.21;79.24
62402;BME280;48440;51.224;22.506;2024-01-15T01:59:18;97108.50;;;0.20;79.36
62402;BME280;48440;51.224;22.506;2024-01-15T02:01:47;97105.84;;;0.20;78.95
62402;BME280;48440;51.224;22.506;2024-01-15T02:04:16;97105.28;;;0.18;78.85
62402;BME280;48440;51.224;22.506;2024-01-15T02:06:43;97096.22;;;0.19;78.48
62402;BME280;48440;51.224;22.506;2024-01-15T02:09:09;97099.47;;;0.21;78.47
62402;BME280;48440;51.224;22.506;2024-01-15T02:11:41;97098.66;;;0.21;78.17
62402;BME280;48440;51.224;22.506;2024-01-15T02:14:07;97090.31;;;0.17;78.49
62402;BME280;48440;51.224;22.506;2024-01-15T02:16:34;97107.59;;;0.15;78.63
62402;BME280;48440;51.224;22.506;2024-01-15T02:19:00;97103.16;;;0.20;78.18
62402;BME280;48440;51.224;22.506;2024-01-15T02:21:26;97097.84;;;0.20;77.97
62402;BME280;48440;51.224;22.506;2024-01-15T02:23:57;97097.13;;;0.25;77.46
62402;BME280;48440;51.224;22.506;2024-01-15T02:26:23;97087.97;;;0.21;77.45
62402;BME280;48440;51.224;22.506;2024-01-15T02:28:50;97087.50;;;0.24;77.46
62402;BME280;48440;51.224;22.506;2024-01-15T02:31:16;97088.22;;;0.19;76.98
62402;BME280;48440;51.224;22.506;2024-01-15T02:33:45;97081.03;;;0.20;77.02
62402;BME280;48440;51.224;22.506;2024-01-15T02:36:14;97075.94;;;0.18;76.95
62402;BME280;48440;51.224;22.506;2024-01-15T02:38:41;97069.78;;;0.18;77.15
62402;BME280;48440;51.224;22.506;2024-01-15T02:41:09;97063.63;;;0.17;76.79
62402;BME280;48440;51.224;22.506;2024-01-15T02:43:35;97067.13;;;0.18;76.51
62402;BME280;48440;51.224;22.506;2024-01-15T02:46:01;97055.16;;;0.20;76.38
62402;BME280;48440;51.224;22.506;2024-01-15T02:48:26;97055.41;;;0.19;75.96
62402;BME280;48440;51.224;22.506;2024-01-15T02:50:52;97048.78;;;0.21;75.70
62402;BME280;48440;51.224;22.506;2024-01-15T02:53:18;97059.34;;;0.16;75.96
62402;BME280;48440;51.224;22.506;2024-01-15T02:55:44;97048.44;;;0.18;76.04
62402;BME280;48440;51.224;22.506;2024-01-15T02:58:09;97055.41;;;0.19;75.62
62402;BME280;48440;51.224;22.506;2024-01-15T03:00:35;97044.16;;;0.17;75.92
62402;BME280;48440;51.224;22.506;2024-01-15T03:03:01;97038.59;;;0.18;75.66
62402;BME280;48440;51.224;22.506;2024-01-15T03:05:27;97055.16;;;0.20;75.76
62402;BME280;48440;51.224;22.506;2024-01-15T03:07:52;97044.72;;;0.19;76.26
62402;BME280;48440;51.224;22.506;2024-01-15T03:10:18;97044.00;;;0.23;76.08
62402;BME280;48440;51.224;22.506;2024-01-15T03:12:44;97034.06;;;0.19;76.90
62402;BME280;48440;51.224;22.506;2024-01-15T03:15:10;97044.72;;;0.19;77.20
62402;BME280;48440;51.224;22.506;2024-01-15T03:17:35;97035.66;;;0.20;76.59
62402;BME280;48440;51.224;22.506;2024-01-15T03:20:01;97032.19;;;0.19;76.62
62402;BME280;48440;51.224;22.506;2024-01-15T03:22:28;97029.19;;;0.16;76.27
62402;BME280;48440;51.224;22.506;2024-01-15T03:24:54;97025.97;;;0.14;76.42
62402;BME280;48440;51.224;22.506;2024-01-15T03:27:19;97023.88;;;0.16;76.22
62402;BME280;48440;51.224;22.506;2024-01-15T03:29:45;97032.03;;;0.09;76.73
62402;BME280;48440;51.224;22.506;2024-01-15T03:32:11;97028.06;;;0.12;76.92
62402;BME280;48440;51.224;22.506;2024-01-15T03:34:37;97020.63;;;0.14;76.89
62402;BME280;48440;51.224;22.506;2024-01-15T03:37:02;97014.81;;;0.17;76.48
62402;BME280;48440;51.224;22.506;2024-01-15T03:39:29;97017.47;;;0.17;76.19
62402;BME280;48440;51.224;22.506;2024-01-15T03:41:55;97023.16;;;0.20;76.35
62402;BME280;48440;51.224;22.506;2024-01-15T03:44:21;97012.72;;;0.19;76.02
62402;BME280;48440;51.224;22.506;2024-01-15T03:46:46;97011.66;;;0.20;76.07
62402;BME280;48440;51.224;22.506;2024-01-15T03:49:12;96999.06;;;0.15;75.50
62402;BME280;48440;51.224;22.506;2024-01-15T03:51:37;96998.56;;;0.18;75.33
62402;BME280;48440;51.224;22.506;2024-01-15T03:54:03;96997.19;;;0.16;75.07
62402;BME280;48440;51.224;22.506;2024-01-15T03:56:29;96995.56;;;0.15;75.39
62402;BME280;48440;51.224;22.506;2024-01-15T03:58:55;96987.91;;;0.18;74.82
62402;BME280;48440;51.224;22.506;2024-01-15T04:01:20;96986.03;;;0.19;74.76
62402;BME280;48440;51.224;22.506;2024-01-15T04:03:46;96986.59;;;0.21;74.59
62402;BME280;48440;51.224;22.506;2024-01-15T04:06:12;96983.13;;;0.20;74.43
62402;BME280;48440;51.224;22.506;2024-01-15T04:08:37;96985.22;;;0.18;73.99
62402;BME280;48440;51.224;22.506;2024-01-15T04:11:03;96976.19;;;0.19;74.19
62402;BME280;48440;51.224;22.506;2024-01-15T04:13:32;96965.50;;;0.19;73.68
62402;BME280;48440;51.224;22.506;2024-01-15T04:15:58;96957.50;;;0.19;73.50
62402;BME280;48440;51.224;22.506;2024-01-15T04:18:23;96960.41;;;0.18;73.50
62402;BME280;48440;51.224;22.506;2024-01-15T04:20:49;96951.03;;;0.15;73.55
62402;BME280;48440;51.224;22.506;2024-01-15T04:23:15;96956.63;;;0.14;73.39
62402;BME280;48440;51.224;22.506;2024-01-15T04:25:41;96954.28;;;0.17;73.05
62402;BME280;48440;51.224;22.506;2024-01-15T04:28:09;96946.28;;;0.17;73.02
62402;BME280;48440;51.224;22.506;2024-01-15T04:30:35;96946.03;;;0.19;73.01
62402;BME280;48440;51.224;22.506;2024-01-15T04:33:01;96951.94;;;0.21;73.10
62402;BME280;48440;51.224;22.506;2024-01-15T04:35:26;96942.06;;;0.21;72.79
62402;BME280;48440;51.224;22.506;2024-01-15T04:37:52;96924.75;;;0.24;72.80
62402;BME280;48440;51.224;22.506;2024-01-15T04:40:17;96935.94;;;0.21;72.67
62402;BME280;48440;51.224;22.506;2024-01-15T04:46:06;96919.44;;;0.24;72.72
62402;BME280;48440;51.224;22.506;2024-01-15T04:48:33;96916.75;;;0.24;72.47
62402;BME280;48440;51.224;22.506;2024-01-15T04:50:58;96915.38;;;0.21;72.49
62402;BME280;48440;51.224;22.506;2024-01-15T04:53:23;96913.28;;;0.23;72.30
62402;BME280;48440;51.224;22.506;2024-01-15T04:55:49;96928.78;;;0.26;72.42
62402;BME280;48440;51.224;22.506;2024-01-15T04:58:15;96922.13;;;0.29;73.05
62402;BME280;48440;51.224;22.506;2024-01-15T05:00:41;96930.38;;;0.27;73.54
62402;BME280;48440;51.224;22.506;2024-01-15T05:03:07;96920.53;;;0.28;74.37
62402;BME280;48440;51.224;22.506;2024-01-15T05:05:32;96924.25;;;0.27;75.12
62402;BME280;48440;51.224;22.506;2024-01-15T05:07:58;96920.00;;;0.26;76.34
62402;BME280;48440;51.224;22.506;2024-01-15T05:10:24;96913.22;;;0.18;77.84
62402;BME280;48440;51.224;22.506;2024-01-15T05:12:49;96917.97;;;0.16;78.43
62402;BME280;48440;51.224;22.506;2024-01-15T05:15:15;96912.25;;;0.08;79.71
62402;BME280;48440;51.224;22.506;2024-01-15T05:17:41;96900.47;;;0.04;80.70
62402;BME280;48440;51.224;22.506;2024-01-15T05:20:07;96905.19;;;-0.04;80.89
62402;BME280;48440;51.224;22.506;2024-01-15T05:22:33;96894.28;;;-0.02;81.02
62402;BME280;48440;51.224;22.506;2024-01-15T05:24:59;96905.41;;;-0.05;80.27
62402;BME280;48440;51.224;22.506;2024-01-15T05:27:24;96887.56;;;-0.05;79.61
62402;BME280;48440;51.224;22.506;2024-01-15T05:29:50;96890.22;;;-0.05;78.75
62402;BME280;48440;51.224;22.506;2024-01-15T05:32:16;96881.75;;;-0.02;78.41
62402;BME280;48440;51.224;22.506;2024-01-15T05:34:41;96884.94;;;0.00;78.14
62402;BME280;48440;51.224;22.506;2024-01-15T05:37:07;96886.06;;;0.05;77.51
62402;BME280;48440;51.224;22.506;2024-01-15T05:39:33;96881.88;;;0.09;77.28
62402;BME280;48440;51.224;22.506;2024-01-15T05:41:59;96892.53;;;0.09;76.90
62402;BME280;48440;51.224;22.506;2024-01-15T05:44:25;96891.00;;;0.13;76.75
62402;BME280;48440;51.224;22.506;2024-01-15T05:46:52;96879.75;;;0.11;76.75
62402;BME280;48440;51.224;22.506;2024-01-15T05:49:18;96875.00;;;0.13;76.60
62402;BME280;48440;51.224;22.506;2024-01-15T05:51:44;96874.75;;;0.14;76.74
62402;BME280;48440;51.224;22.506;2024-01-15T05:54:10;96872.06;;;0.14;76.68
62402;BME280;48440;51.224;22.506;2024-01-15T05:56:36;96862.47;;;0.13;76.58
62402;BME280;48440;51.224;22.506;2024-01-15T05:59:02;96863.25;;;0.14;76.88
62402;BME280;48440;51.224;22.506;2024-01-15T06:01:27;96874.44;;;0.11;77.06
62402;BME280;48440;51.224;22.506;2024-01-15T06:03:53;96868.03;;;0.12;76.69
62402;BME280;48440;51.224;22.506;2024-01-15T06:06:19;96869.91;;;0.11;76.81
62402;BME280;48440;51.224;22.506;2024-01-15T06:08:45;96866.19;;;0.12;76.59
62402;BME280;48440;51.224;22.506;2024-01-15T06:11:11;96857.94;;;0.14;76.94
62402;BME280;48440;51.224;22.506;2024-01-15T06:13:36;96864.56;;;0.11;76.66
62402;BME280;48440;51.224;22.506;2024-01-15T06:16:02;96863.50;;;0.12;76.90
62402;BME280;48440;51.224;22.506;2024-01-15T06:18:28;96852.53;;;0.09;77.23
62402;BME280;48440;51.224;22.506;2024-01-15T06:20:54;96841.13;;;0.13;77.14
62402;BME280;48440;51.224;22.506;2024-01-15T06:23:20;96836.03;;;0.12;77.01
62402;BME280;48440;51.224;22.506;2024-01-15T06:25:45;96837.91;;;0.11;77.17
62402;BME280;48440;51.224;22.506;2024-01-15T06:28:11;96837.09;;;0.11;77.19
62402;BME280;48440;51.224;22.506;2024-01-15T06:30:37;96849.88;;;0.09;77.51
62402;BME280;48440;51.224;22.506;2024-01-15T06:33:03;96848.25;;;0.08;77.67
62402;BME280;48440;51.224;22.506;2024-01-15T06:35:29;96843.88;;;0.02;78.12
62402;BME280;48440;51.224;22.506;2024-01-15T06:37:55;96843.66;;;0.03;78.18
62402;BME280;48440;51.224;22.506;2024-01-15T06:40:21;96845.22;;;-0.01;78.63
62402;BME280;48440;51.224;22.506;2024-01-15T06:42:46;96842.84;;;0.03;78.48
62402;BME280;48440;51.224;22.506;2024-01-15T06:45:12;96842.03;;;0.02;78.53
62402;BME280;48440;51.224;22.506;2024-01-15T06:47:37;96843.41;;;0.05;78.54
62402;BME280;48440;51.224;22.506;2024-01-15T06:50:05;96843.09;;;0.01;79.01
62402;BME280;48440;51.224;22.506;2024-01-15T06:52:53;96839.13;;;0.04;79.08
62402;BME280;48440;51.224;22.506;2024-01-15T06:55:25;96836.22;;;0.05;79.15
62402;BME280;48440;51.224;22.506;2024-01-15T07:01:34;96832.25;;;0.08;78.26
62402;BME280;48440;51.224;22.506;2024-01-15T07:07:39;96858.66;;;0.09;77.96
62402;BME280;48440;51.224;22.506;2024-01-15T07:14:11;96850.75;;;0.14;76.89
62402;BME280;48440;51.224;22.506;2024-01-15T07:17:14;96848.38;;;0.18;76.21
62402;BME280;48440;51.224;22.506;2024-01-15T07:20:00;96851.38;;;0.21;75.95
62402;BME280;48440;51.224;22.506;2024-01-15T07:26:42;96858.88;;;0.24;75.13
62402;BME280;48440;51.224;22.506;2024-01-15T07:32:57;96866.06;;;0.24;74.82
62402;BME280;48440;51.224;22.506;2024-01-15T08:04:00;96870.53;;;0.18;81.19
62402;BME280;48440;51.224;22.506;2024-01-15T08:06:25;96874.50;;;0.16;81.73
62402;BME280;48440;51.224;22.506;2024-01-15T08:08:51;96861.34;;;0.09;81.97
62402;BME280;48440;51.224;22.506;2024-01-15T08:11:16;96868.13;;;0.17;81.91
62402;BME280;48440;51.224;22.506;2024-01-15T08:13:41;96855.59;;;0.17;82.12
62402;BME280;48440;51.224;22.506;2024-01-15T08:16:07;96861.16;;;0.16;81.84
62402;BME280;48440;51.224;22.506;2024-01-15T08:18:33;96853.72;;;0.18;81.89
62402;BME280;48440;51.224;22.506;2024-01-15T08:20:58;96851.88;;;0.18;82.12
62402;BME280;48440;51.224;22.506;2024-01-15T08:23:23;96856.63;;;0.16;82.10
62402;BME280;48440;51.224;22.506;2024-01-15T08:25:50;96854.28;;;0.20;82.13
62402;BME280;48440;51.224;22.506;2024-01-15T08:28:16;96841.19;;;0.18;82.01
62402;BME280;48440;51.224;22.506;2024-01-15T08:30:41;96845.28;;;0.26;81.90
62402;BME280;48440;51.224;22.506;2024-01-15T08:33:07;96849.38;;;0.33;81.91
62402;BME280;48440;51.224;22.506;2024-01-15T08:35:32;96843.03;;;0.40;81.62
62402;BME280;48440;51.224;22.506;2024-01-15T08:37:58;96839.94;;;0.48;81.32
62402;BME280;48440;51.224;22.506;2024-01-15T08:40:23;96846.66;;;0.50;80.08
62402;BME280;48440;51.224;22.506;2024-01-15T08:42:49;96841.06;;;0.52;80.07
62402;BME280;48440;51.224;22.506;2024-01-15T08:45:14;96840.53;;;0.55;79.64
62402;BME280;48440;51.224;22.506;2024-01-15T08:47:40;96839.72;;;0.76;79.25
62402;BME280;48440;51.224;22.506;2024-01-15T08:50:07;96843.31;;;1.19;77.47
62402;BME280;48440;51.224;22.506;2024-01-15T08:52:35;96843.47;;;1.71;74.52
62402;BME280;48440;51.224;22.506;2024-01-15T08:55:01;96838.44;;;1.85;73.72
62402;BME280;48440;51.224;22.506;2024-01-15T08:57:26;96843.25;;;1.78;73.94
62402;BME280;48440;51.224;22.506;2024-01-15T08:59:52;96859.19;;;1.67;73.03
62402;BME280;48440;51.224;22.506;2024-01-15T09:02:17;96856.19;;;1.54;73.58
62402;BME280;48440;51.224;22.506;2024-01-15T09:04:43;96860.06;;;1.41;73.08
62402;BME280;48440;51.224;22.506;2024-01-15T09:07:08;96855.44;;;1.31;73.60
62402;BME280;48440;51.224;22.506;2024-01-15T09:09:34;96856.78;;;1.29;73.69
62402;BME280;48440;51.224;22.506;2024-01-15T09:12:00;96859.53;;;1.39;73.40
62402;BME280;48440;51.224;22.506;2024-01-15T09:14:26;96863.94;;;1.55;72.94
62402;BME280;48440;51.224;22.506;2024-01-15T09:16:53;96848.16;;;1.59;71.98
62402;BME280;48440;51.224;22.506;2024-01-15T09:19:18;96848.13;;;1.49;72.52
62402;BME280;48440;51.224;22.506;2024-01-15T09:21:44;96845.91;;;1.41;72.39
62402;BME280;48440;51.224;22.506;2024-01-15T09:24:09;96842.94;;;1.37;72.91
62402;BME280;48440;51.224;22.506;2024-01-15T09:26:35;96846.38;;;1.32;73.39
62402;BME280;48440;51.224;22.506;2024-01-15T09:29:00;96845.78;;;1.25;73.30
62402;BME280;48440;51.224;22.506;2024-01-15T09:31:26;96835.25;;;1.14;74.34
62402;BME280;48440;51.224;22.506;2024-01-15T09:33:52;96828.00;;;1.09;74.32
62402;BME280;48440;51.224;22.506;2024-01-15T09:36:21;96829.06;;;1.08;74.31
62402;BME280;48440;51.224;22.506;2024-01-15T09:38:48;96821.66;;;1.15;74.21
62402;BME280;48440;51.224;22.506;2024-01-15T09:41:13;96823.56;;;1.20;74.32
62402;BME280;48440;51.224;22.506;2024-01-15T09:43:39;96817.72;;;1.23;74.09
62402;BME280;48440;51.224;22.506;2024-01-15T09:46:05;96830.88;;;1.34;74.03
62402;BME280;48440;51.224;22.506;2024-01-15T09:48:31;96825.59;;;1.40;72.76
62402;BME280;48440;51.224;22.506;2024-01-15T09:51:01;96818.84;;;1.32;71.89
62402;BME280;48440;51.224;22.506;2024-01-15T09:53:27;96816.72;;;1.34;72.70
62402;BME280;48440;51.224;22.506;2024-01-15T09:55:52;96817.78;;;1.33;72.68
62402;BME280;48440;51.224;22.506;2024-01-15T09:58:18;96815.66;;;1.35;72.47
62402;BME280;48440;51.224;22.506;2024-01-15T10:00:44;96806.28;;;1.32;73.03
62402;BME280;48440;51.224;22.506;2024-01-15T10:03:10;96807.09;;;1.33;72.53
62402;BME280;48440;51.224;22.506;2024-01-15T10:05:37;96814.53;;;1.31;73.38
62402;BME280;48440;51.224;22.506;2024-01-15T10:08:04;96818.31;;;1.30;72.75
62402;BME280;48440;51.224;22.506;2024-01-15T10:10:31;96813.50;;;1.32;73.13
62402;BME280;48440;51.224;22.506;2024-01-15T10:12:58;96820.94;;;1.25;72.92
62402;BME280;48440;51.224;22.506;2024-01-15T10:15:28;96827.84;;;1.21;73.11
62402;BME280;48440;51.224;22.506;2024-01-15T10:17:54;96819.28;;;1.19;73.74
62402;BME280;48440;51.224;22.506;2024-01-15T10:20:20;96824.88;;;1.17;73.93
62402;BME280;48440;51.224;22.506;2024-01-15T10:22:47;96809.59;;;1.13;74.02
62402;BME280;48440;51.224;22.506;2024-01-15T10:25:13;96812.47;;;1.06;73.81
62402;BME280;48440;51.224;22.506;2024-01-15T10:27:40;96812.47;;;1.01;74.54
62402;BME280;48440;51.224;22.506;2024-01-15T10:30:08;96810.72;;;1.17;74.13
62402;BME280;48440;51.224;22.506;2024-01-15T10:32:33;96811.34;;;1.29;73.28
62402;BME280;48440;51.224;22.506;2024-01-15T10:34:59;96824.06;;;1.49;72.26
62402;BME280;48440;51.224;22.506;2024-01-15T10:37:25;96825.88;;;1.85;71.08
62402;BME280;48440;51.224;22.506;2024-01-15T10:39:50;96827.88;;;2.05;69.58
62402;BME280;48440;51.224;22.506;2024-01-15T10:42:16;96827.63;;;2.07;69.28
62402;BME280;48440;51.224;22.506;2024-01-15T10:44:44;96823.56;;;1.99;69.63
62402;BME280;48440;51.224;22.506;2024-01-15T10:47:12;96831.00;;;1.92;69.14
62402;BME280;48440;51.224;22.506;2024-01-15T10:49:39;96832.28;;;1.79;68.35
62402;BME280;48440;51.224;22.506;2024-01-15T10:52:05;96828.13;;;1.61;68.47
62402;BME280;48440;51.224;22.506;2024-01-15T10:54:31;96831.81;;;1.50;69.59
62402;BME280;48440;51.224;22.506;2024-01-15T10:56:57;96826.19;;;1.47;69.51
62402;BME280;48440;51.224;22.506;2024-01-15T10:59:24;96832.59;;;1.46;69.49
62402;BME280;48440;51.224;22.506;2024-01-15T11:01:50;96830.47;;;1.48;68.95
62402;BME280;48440;51.224;22.506;2024-01-15T11:04:19;96834.69;;;1.44;68.62
62402;BME280;48440;51.224;22.506;2024-01-15T11:06:47;96833.34;;;1.41;68.97
62402;BME280;48440;51.224;22.506;2024-01-15T11:09:14;96840.50;;;1.35;69.43
62402;BME280;48440;51.224;22.506;2024-01-15T11:11:45;96831.66;;;1.30;69.10
62402;BME280;48440;51.224;22.506;2024-01-15T11:17:00;96834.28;;;1.25;69.46
62402;BME280;48440;51.224;22.506;2024-01-15T11:19:38;96836.91;;;1.20;69.58
62402;BME280;48440;51.224;22.506;2024-01-15T11:24:57;96829.72;;;1.20;69.28
62402;BME280;48440;51.224;22.506;2024-01-15T11:27:42;96829.75;;;1.25;69.68
62402;BME280;48440;51.224;22.506;2024-01-15T11:30:10;96836.56;;;1.43;69.28
62402;BME280;48440;51.224;22.506;2024-01-15T11:32:36;96832.13;;;1.54;68.73
62402;BME280;48440;51.224;22.506;2024-01-15T11:35:02;96832.88;;;1.49;68.14
62402;BME280;48440;51.224;22.506;2024-01-15T11:40:20;96834.09;;;1.36;68.01
62402;BME280;48440;51.224;22.506;2024-01-15T11:42:46;96833.25;;;1.31;68.41
62402;BME280;48440;51.224;22.506;2024-01-15T11:45:15;96828.19;;;1.29;67.80
62402;BME280;48440;51.224;22.506;2024-01-15T11:50:44;96822.63;;;1.36;67.79
62402;BME280;48440;51.224;22.506;2024-01-15T11:55:51;96811.34;;;1.66;66.62
62402;BME280;48440;51.224;22.506;2024-01-15T11:58:16;96812.47;;;1.75;66.44
62402;BME280;48440;51.224;22.506;2024-01-15T12:00:48;96806.06;;;1.76;65.93
62402;BME280;48440;51.224;22.506;2024-01-15T12:03:15;96816.22;;;1.74;66.35
62402;BME280;48440;51.224;22.506;2024-01-15T12:05:40;96811.44;;;1.81;66.04
62402;BME280;48440;51.224;22.506;2024-01-15T12:08:09;96810.34;;;1.82;66.11
62402;BME280;48440;51.224;22.506;2024-01-15T12:10:38;96798.31;;;1.80;65.97
62402;BME280;48440;51.224;22.506;2024-01-15T12:13:13;96805.53;;;1.79;66.14
62402;BME280;48440;51.224;22.506;2024-01-15T12:15:39;96804.47;;;1.85;66.01
62402;BME280;48440;51.224;22.506;2024-01-15T12:18:10;96802.66;;;1.91;66.11
62402;BME280;48440;51.224;22.506;2024-01-15T12:20:36;96796.53;;;1.95;65.44
62402;BME280;48440;51.224;22.506;2024-01-15T12:23:02;96803.50;;;1.96;65.53
62402;BME280;48440;51.224;22.506;2024-01-15T12:25:34;96797.88;;;1.98;65.00
62402;BME280;48440;51.224;22.506;2024-01-15T12:28:00;96806.91;;;1.87;65.56
62402;BME280;48440;51.224;22.506;2024-01-15T12:30:29;96798.59;;;1.83;65.43
62402;BME280;48440;51.224;22.506;2024-01-15T12:32:57;96804.44;;;1.75;65.96
62402;BME280;48440;51.224;22.506;2024-01-15T12:35:24;96799.88;;;1.70;65.37
62402;BME280;48440;51.224;22.506;2024-01-15T12:37:51;96799.56;;;1.67;65.20
62402;BME280;48440;51.224;22.506;2024-01-15T12:40:20;96800.59;;;1.61;65.28
62402;BME280;48440;51.224;22.506;2024-01-15T12:42:46;96801.09;;;1.53;65.37
62402;BME280;48440;51.224;22.506;2024-01-15T12:45:12;96801.31;;;1.46;65.36
62402;BME280;48440;51.224;22.506;2024-01-15T12:47:38;96794.91;;;1.47;65.72
62402;BME280;48440;51.224;22.506;2024-01-15T12:50:09;96801.56;;;1.45;65.72
62402;BME280;48440;51.224;22.506;2024-01-15T12:52:35;96799.91;;;1.39;65.44
62402;BME280;48440;51.224;22.506;2024-01-15T12:55:06;96795.34;;;1.34;65.61
62402;BME280;48440;51.224;22.506;2024-01-15T12:57:33;96805.47;;;1.32;65.76
62402;BME280;48440;51.224;22.506;2024-01-15T12:59:59;96810.00;;;1.31;65.30
62402;BME280;48440;51.224;22.506;2024-01-15T13:02:24;96814.53;;;1.26;65.30
62402;BME280;48440;51.224;22.506;2024-01-15T13:04:50;96816.69;;;1.29;65.13
62402;BME280;48440;51.224;22.506;2024-01-15T13:07:16;96825.22;;;1.26;65.16
62402;BME280;48440;51.224;22.506;2024-01-15T13:09:42;96813.44;;;1.22;65.05
62402;BME280;48440;51.224;22.506;2024-01-15T13:12:08;96814.22;;;1.22;65.02
62402;BME280;48440;51.224;22.506;2024-01-15T13:14:34;96814.50;;;1.21;65.27
62402;BME280;48440;51.224;22.506;2024-01-15T13:16:59;96817.47;;;1.24;65.39
62402;BME280;48440;51.224;22.506;2024-01-15T13:19:25;96811.06;;;1.25;66.00
62402;BME280;48440;51.224;22.506;2024-01-15T13:21:51;96804.41;;;1.28;65.48
62402;BME280;48440;51.224;22.506;2024-01-15T13:24:17;96797.44;;;1.32;65.12
62402;BME280;48440;51.224;22.506;2024-01-15T13:26:42;96792.91;;;1.32;64.66
62402;BME280;48440;51.224;22.506;2024-01-15T13:29:08;96802.00;;;1.31;64.69
62402;BME280;48440;51.224;22.506;2024-01-15T13:31:34;96792.91;;;1.32;65.06
62402;BME280;48440;51.224;22.506;2024-01-15T13:34:00;96809.75;;;1.28;64.90
62402;BME280;48440;51.224;22.506;2024-01-15T13:36:28;96804.34;;;1.23;64.58
62402;BME280;48440;51.224;22.506;2024-01-15T13:38:54;96813.34;;;1.12;65.17
62402;BME280;48440;51.224;22.506;2024-01-15T13:41:20;96811.16;;;1.04;65.77
62402;BME280;48440;51.224;22.506;2024-01-15T13:43:54;96807.66;;;1.03;65.81
62402;BME280;48440;51.224;22.506;2024-01-15T13:46:24;96818.34;;;1.03;65.92
62402;BME280;48440;51.224;22.506;2024-01-15T13:48:51;96814.59;;;1.04;66.23
62402;BME280;48440;51.224;22.506;2024-01-15T13:51:17;96816.69;;;0.97;66.03
62402;BME280;48440;51.224;22.506;2024-01-15T13:53:42;96818.31;;;0.98;66.61
62402;BME280;48440;51.224;22.506;2024-01-15T13:56:08;96811.66;;;1.00;66.33
62402;BME280;48440;51.224;22.506;2024-01-15T13:58:36;96802.53;;;0.96;66.77
62402;BME280;48440;51.224;22.506;2024-01-15T14:01:02;96811.91;;;0.99;66.92
62402;BME280;48440;51.224;22.506;2024-01-15T14:03:29;96806.56;;;0.99;66.91